Mississippi River (Missouri), Grafton (05587450)

StateMissouriLatestUnknown (54100 cfs)
RiverMississippi RiverRatingObservedEstimated
Updated2022-09-25 22:00 (34 minutes ago)Flood - The river is flooding. Obstacles can be treacherous or deadly. The river should be avoided at this stage for casual trips and definitely for the inexperienced. Trips should be attempted only with protective gear and equipment.Flood(none)(none)
Discharge54100 cfs (median: 68300 cfs)High - The river is high and potentially dangerous, especially for the young and / or inexperienced. Normal stream obstacles are sometimes difficult to navigate. Extended distances can be attempted, but canoe travel may not be advisable.High(none)(none)
Height15.7 feetGood - Conditions are ideal for a canoe or kayak. Boats typically will drag on fewer than one-quarter of riffles, if at all, and portages are unnecessary or rare. Normal float lengths can be attempted without a problem.Good(none)(none)
TrendRising (falling over 24 hours)Low - River is low but can still be floated. Some riffles are okay but most come with significant dragging and might need a portage. Float lengths should be reduced to accommodate low flow, dragging, and portages.Low(none)(none)
USGSExternal icon USGS Site (External icon Duck Duck Go Maps)Poor - River is too low to float comfortably. Most or all riffles will drag or must be portaged and some obstacles (such as slick shelf rock) cause undue problems. Avoid the river at this stage for casual paddling trips.Poor(none)(none)

Trending Data

Plot Image

Trips for Mississippi River (Missouri), Grafton (05587450)

DateStartEndDistanceConditionDischargeHeightFishingDetails

A total of 0 rows are displayed.

Condition Descriptions

Fishing Conditions

Fish Species

Notes

Classic Trip List

The classic River Trips application is still available for use. It is updated with the new system using a data retrofit. It is no longer maintained. The original River Trips application is no longer updated (as of 1 Dec 2016) but can be checked for errors or for the condition of the data before it was converted to the new system.

Gauge Data Table

ObservationHeightDischargeMaximum
Discharge
Minimum
Discharge
Mean
Discharge
P05P10P20P25P50
(Median)
P75P80P90P95
2022-09-25 22:00 15.70 54100 331000 (1993) 28200 (2012) 90200 32300 40900 45000 51300 68300 106000 151000 171000 248000
2022-09-25 21:30 15.71 331000 (1993) 28200 (2012) 90200 32300 40900 45000 51300 68300 106000 151000 171000 248000
2022-09-25 21:00 15.69 331000 (1993) 28200 (2012) 90200 32300 40900 45000 51300 68300 106000 151000 171000 248000
2022-09-25 20:30 15.69 331000 (1993) 28200 (2012) 90200 32300 40900 45000 51300 68300 106000 151000 171000 248000
2022-09-25 20:00 15.71 54000 331000 (1993) 28200 (2012) 90200 32300 40900 45000 51300 68300 106000 151000 171000 248000
2022-09-25 19:30 15.72 331000 (1993) 28200 (2012) 90200 32300 40900 45000 51300 68300 106000 151000 171000 248000
2022-09-25 19:00 15.73 331000 (1993) 28200 (2012) 90200 32300 40900 45000 51300 68300 106000 151000 171000 248000
2022-09-25 18:30 15.73 331000 (1993) 28200 (2012) 90200 32300 40900 45000 51300 68300 106000 151000 171000 248000
2022-09-25 18:00 15.71 50400 331000 (1993) 28200 (2012) 90200 32300 40900 45000 51300 68300 106000 151000 171000 248000
2022-09-25 17:30 15.72 331000 (1993) 28200 (2012) 90200 32300 40900 45000 51300 68300 106000 151000 171000 248000
2022-09-25 17:00 15.70 48800 331000 (1993) 28200 (2012) 90200 32300 40900 45000 51300 68300 106000 151000 171000 248000
2022-09-25 16:30 15.70 331000 (1993) 28200 (2012) 90200 32300 40900 45000 51300 68300 106000 151000 171000 248000
2022-09-25 16:00 15.71 331000 (1993) 28200 (2012) 90200 32300 40900 45000 51300 68300 106000 151000 171000 248000
2022-09-25 15:30 15.70 331000 (1993) 28200 (2012) 90200 32300 40900 45000 51300 68300 106000 151000 171000 248000
2022-09-25 15:00 15.70 46200 331000 (1993) 28200 (2012) 90200 32300 40900 45000 51300 68300 106000 151000 171000 248000
2022-09-25 14:30 15.67 331000 (1993) 28200 (2012) 90200 32300 40900 45000 51300 68300 106000 151000 171000 248000
2022-09-25 14:00 15.66 331000 (1993) 28200 (2012) 90200 32300 40900 45000 51300 68300 106000 151000 171000 248000
2022-09-25 13:30 15.66 331000 (1993) 28200 (2012) 90200 32300 40900 45000 51300 68300 106000 151000 171000 248000
2022-09-25 13:00 15.69 49100 331000 (1993) 28200 (2012) 90200 32300 40900 45000 51300 68300 106000 151000 171000 248000
2022-09-25 12:30 15.68 49300 331000 (1993) 28200 (2012) 90200 32300 40900 45000 51300 68300 106000 151000 171000 248000
2022-09-25 12:00 15.65 46400 331000 (1993) 28200 (2012) 90200 32300 40900 45000 51300 68300 106000 151000 171000 248000
2022-09-25 11:30 15.66 48000 331000 (1993) 28200 (2012) 90200 32300 40900 45000 51300 68300 106000 151000 171000 248000
2022-09-25 11:00 15.67 331000 (1993) 28200 (2012) 90200 32300 40900 45000 51300 68300 106000 151000 171000 248000
2022-09-25 10:30 15.67 49600 331000 (1993) 28200 (2012) 90200 32300 40900 45000 51300 68300 106000 151000 171000 248000
2022-09-25 10:00 15.68 50600 331000 (1993) 28200 (2012) 90200 32300 40900 45000 51300 68300 106000 151000 171000 248000
2022-09-25 09:30 15.70 331000 (1993) 28200 (2012) 90200 32300 40900 45000 51300 68300 106000 151000 171000 248000
2022-09-25 09:00 15.67 51400 331000 (1993) 28200 (2012) 90200 32300 40900 45000 51300 68300 106000 151000 171000 248000
2022-09-25 08:30 15.68 52300 331000 (1993) 28200 (2012) 90200 32300 40900 45000 51300 68300 106000 151000 171000 248000
2022-09-25 08:00 15.67 331000 (1993) 28200 (2012) 90200 32300 40900 45000 51300 68300 106000 151000 171000 248000
2022-09-25 07:30 15.69 53200 331000 (1993) 28200 (2012) 90200 32300 40900 45000 51300 68300 106000 151000 171000 248000
2022-09-25 07:00 15.70 54100 331000 (1993) 28200 (2012) 90200 32300 40900 45000 51300 68300 106000 151000 171000 248000
2022-09-25 06:30 15.72 55900 331000 (1993) 28200 (2012) 90200 32300 40900 45000 51300 68300 106000 151000 171000 248000
2022-09-25 06:00 15.72 55400 331000 (1993) 28200 (2012) 90200 32300 40900 45000 51300 68300 106000 151000 171000 248000
2022-09-25 05:30 15.73 56300 331000 (1993) 28200 (2012) 90200 32300 40900 45000 51300 68300 106000 151000 171000 248000
2022-09-25 05:00 15.75 57100 331000 (1993) 28200 (2012) 90200 32300 40900 45000 51300 68300 106000 151000 171000 248000
2022-09-25 04:30 15.74 55700 331000 (1993) 28200 (2012) 90200 32300 40900 45000 51300 68300 106000 151000 171000 248000
2022-09-25 04:00 15.75 55500 331000 (1993) 28200 (2012) 90200 32300 40900 45000 51300 68300 106000 151000 171000 248000
2022-09-25 03:30 15.76 56400 331000 (1993) 28200 (2012) 90200 32300 40900 45000 51300 68300 106000 151000 171000 248000
2022-09-25 03:00 15.78 57700 331000 (1993) 28200 (2012) 90200 32300 40900 45000 51300 68300 106000 151000 171000 248000
2022-09-25 02:30 15.77 331000 (1993) 28200 (2012) 90200 32300 40900 45000 51300 68300 106000 151000 171000 248000
2022-09-25 02:00 15.78 56600 331000 (1993) 28200 (2012) 90200 32300 40900 45000 51300 68300 106000 151000 171000 248000
2022-09-25 01:30 15.79 57600 331000 (1993) 28200 (2012) 90200 32300 40900 45000 51300 68300 106000 151000 171000 248000
2022-09-25 01:00 15.80 58500 331000 (1993) 28200 (2012) 90200 32300 40900 45000 51300 68300 106000 151000 171000 248000
2022-09-25 00:30 15.81 331000 (1993) 28200 (2012) 90200 32300 40900 45000 51300 68300 106000 151000 171000 248000
2022-09-25 00:00 15.82 59300 331000 (1993) 28200 (2012) 90200 32300 40900 45000 51300 68300 106000 151000 171000 248000
2022-09-24 23:30 15.83 320000 (1993) 25800 (2012) 90600 31400 37600 43800 48800 68800 112000 152000 180000 246000
2022-09-24 23:00 15.84 59500 320000 (1993) 25800 (2012) 90600 31400 37600 43800 48800 68800 112000 152000 180000 246000
2022-09-24 22:30 15.86 61400 320000 (1993) 25800 (2012) 90600 31400 37600 43800 48800 68800 112000 152000 180000 246000
2022-09-24 22:00 15.85 320000 (1993) 25800 (2012) 90600 31400 37600 43800 48800 68800 112000 152000 180000 246000
2022-09-24 21:30 15.87 61200 320000 (1993) 25800 (2012) 90600 31400 37600 43800 48800 68800 112000 152000 180000 246000
2022-09-24 21:00 15.88 61600 320000 (1993) 25800 (2012) 90600 31400 37600 43800 48800 68800 112000 152000 180000 246000
2022-09-24 20:30 15.88 61000 320000 (1993) 25800 (2012) 90600 31400 37600 43800 48800 68800 112000 152000 180000 246000
2022-09-24 20:00 15.90 61200 320000 (1993) 25800 (2012) 90600 31400 37600 43800 48800 68800 112000 152000 180000 246000
2022-09-24 19:30 15.90 61800 320000 (1993) 25800 (2012) 90600 31400 37600 43800 48800 68800 112000 152000 180000 246000
2022-09-24 19:00 15.91 61600 320000 (1993) 25800 (2012) 90600 31400 37600 43800 48800 68800 112000 152000 180000 246000
2022-09-24 18:30 15.91 320000 (1993) 25800 (2012) 90600 31400 37600 43800 48800 68800 112000 152000 180000 246000
2022-09-24 18:00 15.90 60000 320000 (1993) 25800 (2012) 90600 31400 37600 43800 48800 68800 112000 152000 180000 246000
2022-09-24 17:30 15.94 320000 (1993) 25800 (2012) 90600 31400 37600 43800 48800 68800 112000 152000 180000 246000
2022-09-24 17:00 15.94 320000 (1993) 25800 (2012) 90600 31400 37600 43800 48800 68800 112000 152000 180000 246000
2022-09-24 16:30 15.88 320000 (1993) 25800 (2012) 90600 31400 37600 43800 48800 68800 112000 152000 180000 246000
2022-09-24 16:00 15.92 320000 (1993) 25800 (2012) 90600 31400 37600 43800 48800 68800 112000 152000 180000 246000
2022-09-24 15:30 15.92 60000 320000 (1993) 25800 (2012) 90600 31400 37600 43800 48800 68800 112000 152000 180000 246000
2022-09-24 15:00 15.91 320000 (1993) 25800 (2012) 90600 31400 37600 43800 48800 68800 112000 152000 180000 246000
2022-09-24 14:30 15.94 62100 320000 (1993) 25800 (2012) 90600 31400 37600 43800 48800 68800 112000 152000 180000 246000
2022-09-24 14:00 15.96 320000 (1993) 25800 (2012) 90600 31400 37600 43800 48800 68800 112000 152000 180000 246000
2022-09-24 13:30 15.89 320000 (1993) 25800 (2012) 90600 31400 37600 43800 48800 68800 112000 152000 180000 246000
2022-09-24 13:00 15.92 60000 320000 (1993) 25800 (2012) 90600 31400 37600 43800 48800 68800 112000 152000 180000 246000
2022-09-24 12:30 15.94 320000 (1993) 25800 (2012) 90600 31400 37600 43800 48800 68800 112000 152000 180000 246000
2022-09-24 12:00 15.85 320000 (1993) 25800 (2012) 90600 31400 37600 43800 48800 68800 112000 152000 180000 246000
2022-09-24 11:30 15.94 62100 320000 (1993) 25800 (2012) 90600 31400 37600 43800 48800 68800 112000 152000 180000 246000
2022-09-24 11:00 15.94 63300 320000 (1993) 25800 (2012) 90600 31400 37600 43800 48800 68800 112000 152000 180000 246000
2022-09-24 10:30 15.93 62300 320000 (1993) 25800 (2012) 90600 31400 37600 43800 48800 68800 112000 152000 180000 246000
2022-09-24 10:00 15.92 320000 (1993) 25800 (2012) 90600 31400 37600 43800 48800 68800 112000 152000 180000 246000
2022-09-24 09:30 15.95 65000 320000 (1993) 25800 (2012) 90600 31400 37600 43800 48800 68800 112000 152000 180000 246000
2022-09-24 09:00 15.93 63600 320000 (1993) 25800 (2012) 90600 31400 37600 43800 48800 68800 112000 152000 180000 246000
2022-09-24 08:30 15.94 65200 320000 (1993) 25800 (2012) 90600 31400 37600 43800 48800 68800 112000 152000 180000 246000
2022-09-24 08:00 15.93 64800 320000 (1993) 25800 (2012) 90600 31400 37600 43800 48800 68800 112000 152000 180000 246000
2022-09-24 07:30 15.92 320000 (1993) 25800 (2012) 90600 31400 37600 43800 48800 68800 112000 152000 180000 246000
2022-09-24 07:00 15.93 64800 320000 (1993) 25800 (2012) 90600 31400 37600 43800 48800 68800 112000 152000 180000 246000
2022-09-24 06:30 15.93 320000 (1993) 25800 (2012) 90600 31400 37600 43800 48800 68800 112000 152000 180000 246000
2022-09-24 06:00 15.93 64800 320000 (1993) 25800 (2012) 90600 31400 37600 43800 48800 68800 112000 152000 180000 246000
2022-09-24 05:30 15.94 65800 320000 (1993) 25800 (2012) 90600 31400 37600 43800 48800 68800 112000 152000 180000 246000
2022-09-24 05:00 15.94 65800 320000 (1993) 25800 (2012) 90600 31400 37600 43800 48800 68800 112000 152000 180000 246000
2022-09-24 04:30 15.94 66400 320000 (1993) 25800 (2012) 90600 31400 37600 43800 48800 68800 112000 152000 180000 246000
2022-09-24 04:00 15.93 65400 320000 (1993) 25800 (2012) 90600 31400 37600 43800 48800 68800 112000 152000 180000 246000
2022-09-24 03:30 15.91 320000 (1993) 25800 (2012) 90600 31400 37600 43800 48800 68800 112000 152000 180000 246000
2022-09-24 03:00 15.91 65200 320000 (1993) 25800 (2012) 90600 31400 37600 43800 48800 68800 112000 152000 180000 246000
2022-09-24 02:30 15.92 66800 320000 (1993) 25800 (2012) 90600 31400 37600 43800 48800 68800 112000 152000 180000 246000
2022-09-24 02:00 15.92 67400 320000 (1993) 25800 (2012) 90600 31400 37600 43800 48800 68800 112000 152000 180000 246000
2022-09-24 01:30 15.91 66400 320000 (1993) 25800 (2012) 90600 31400 37600 43800 48800 68800 112000 152000 180000 246000
2022-09-24 01:00 15.92 66800 320000 (1993) 25800 (2012) 90600 31400 37600 43800 48800 68800 112000 152000 180000 246000
2022-09-24 00:30 15.92 320000 (1993) 25800 (2012) 90600 31400 37600 43800 48800 68800 112000 152000 180000 246000
2022-09-24 00:00 15.94 320000 (1993) 25800 (2012) 90600 31400 37600 43800 48800 68800 112000 152000 180000 246000
2022-09-23 23:30 15.91 304000 (1993) 26400 (2003) 92400 28300 37700 48900 51500 69000 123000 161000 202000 242000
2022-09-23 23:00 15.92 66200 304000 (1993) 26400 (2003) 92400 28300 37700 48900 51500 69000 123000 161000 202000 242000
2022-09-23 22:30 15.91 304000 (1993) 26400 (2003) 92400 28300 37700 48900 51500 69000 123000 161000 202000 242000
2022-09-23 22:00 15.92 67400 304000 (1993) 26400 (2003) 92400 28300 37700 48900 51500 69000 123000 161000 202000 242000
2022-09-23 21:30 15.92 68000 304000 (1993) 26400 (2003) 92400 28300 37700 48900 51500 69000 123000 161000 202000 242000
2022-09-23 21:00 15.92 68600 304000 (1993) 26400 (2003) 92400 28300 37700 48900 51500 69000 123000 161000 202000 242000
2022-09-23 20:30 15.93 304000 (1993) 26400 (2003) 92400 28300 37700 48900 51500 69000 123000 161000 202000 242000
2022-09-23 20:00 15.92 68000 304000 (1993) 26400 (2003) 92400 28300 37700 48900 51500 69000 123000 161000 202000 242000
2022-09-23 19:30 15.90 304000 (1993) 26400 (2003) 92400 28300 37700 48900 51500 69000 123000 161000 202000 242000
2022-09-23 19:00 15.91 67600 304000 (1993) 26400 (2003) 92400 28300 37700 48900 51500 69000 123000 161000 202000 242000
2022-09-23 18:30 15.92 304000 (1993) 26400 (2003) 92400 28300 37700 48900 51500 69000 123000 161000 202000 242000
2022-09-23 18:00 15.91 304000 (1993) 26400 (2003) 92400 28300 37700 48900 51500 69000 123000 161000 202000 242000
2022-09-23 17:30 15.92 304000 (1993) 26400 (2003) 92400 28300 37700 48900 51500 69000 123000 161000 202000 242000
2022-09-23 17:00 15.87 64200 304000 (1993) 26400 (2003) 92400 28300 37700 48900 51500 69000 123000 161000 202000 242000
2022-09-23 16:30 15.88 304000 (1993) 26400 (2003) 92400 28300 37700 48900 51500 69000 123000 161000 202000 242000
2022-09-23 16:00 15.87 304000 (1993) 26400 (2003) 92400 28300 37700 48900 51500 69000 123000 161000 202000 242000
2022-09-23 15:30 15.87 304000 (1993) 26400 (2003) 92400 28300 37700 48900 51500 69000 123000 161000 202000 242000
2022-09-23 15:00 15.84 61200 304000 (1993) 26400 (2003) 92400 28300 37700 48900 51500 69000 123000 161000 202000 242000
2022-09-23 14:30 15.85 62200 304000 (1993) 26400 (2003) 92400 28300 37700 48900 51500 69000 123000 161000 202000 242000
2022-09-23 14:00 15.82 304000 (1993) 26400 (2003) 92400 28300 37700 48900 51500 69000 123000 161000 202000 242000
2022-09-23 13:30 15.82 304000 (1993) 26400 (2003) 92400 28300 37700 48900 51500 69000 123000 161000 202000 242000
2022-09-23 13:00 15.83 63700 304000 (1993) 26400 (2003) 92400 28300 37700 48900 51500 69000 123000 161000 202000 242000
2022-09-23 12:30 15.84 65300 304000 (1993) 26400 (2003) 92400 28300 37700 48900 51500 69000 123000 161000 202000 242000
2022-09-23 12:00 15.83 64800 304000 (1993) 26400 (2003) 92400 28300 37700 48900 51500 69000 123000 161000 202000 242000
2022-09-23 11:30 15.81 304000 (1993) 26400 (2003) 92400 28300 37700 48900 51500 69000 123000 161000 202000 242000
2022-09-23 11:00 15.84 65300 304000 (1993) 26400 (2003) 92400 28300 37700 48900 51500 69000 123000 161000 202000 242000
2022-09-23 10:30 15.83 64800 304000 (1993) 26400 (2003) 92400 28300 37700 48900 51500 69000 123000 161000 202000 242000
2022-09-23 10:00 15.83 64300 304000 (1993) 26400 (2003) 92400 28300 37700 48900 51500 69000 123000 161000 202000 242000
2022-09-23 09:30 15.81 304000 (1993) 26400 (2003) 92400 28300 37700 48900 51500 69000 123000 161000 202000 242000
2022-09-23 09:00 15.85 66800 304000 (1993) 26400 (2003) 92400 28300 37700 48900 51500 69000 123000 161000 202000 242000
2022-09-23 08:30 15.83 304000 (1993) 26400 (2003) 92400 28300 37700 48900 51500 69000 123000 161000 202000 242000
2022-09-23 08:00 15.82 304000 (1993) 26400 (2003) 92400 28300 37700 48900 51500 69000 123000 161000 202000 242000
2022-09-23 07:30 15.85 68000 304000 (1993) 26400 (2003) 92400 28300 37700 48900 51500 69000 123000 161000 202000 242000
2022-09-23 07:00 15.85 66300 304000 (1993) 26400 (2003) 92400 28300 37700 48900 51500 69000 123000 161000 202000 242000
2022-09-23 06:30 15.87 304000 (1993) 26400 (2003) 92400 28300 37700 48900 51500 69000 123000 161000 202000 242000
2022-09-23 06:00 15.85 304000 (1993) 26400 (2003) 92400 28300 37700 48900 51500 69000 123000 161000 202000 242000
2022-09-23 05:30 15.84 304000 (1993) 26400 (2003) 92400 28300 37700 48900 51500 69000 123000 161000 202000 242000
2022-09-23 05:00 15.83 66000 304000 (1993) 26400 (2003) 92400 28300 37700 48900 51500 69000 123000 161000 202000 242000
2022-09-23 04:30 15.80 63000 304000 (1993) 26400 (2003) 92400 28300 37700 48900 51500 69000 123000 161000 202000 242000
2022-09-23 04:00 15.79 63100 304000 (1993) 26400 (2003) 92400 28300 37700 48900 51500 69000 123000 161000 202000 242000
2022-09-23 03:30 15.77 304000 (1993) 26400 (2003) 92400 28300 37700 48900 51500 69000 123000 161000 202000 242000
2022-09-23 03:00 15.77 63400 304000 (1993) 26400 (2003) 92400 28300 37700 48900 51500 69000 123000 161000 202000 242000
2022-09-23 02:30 15.78 304000 (1993) 26400 (2003) 92400 28300 37700 48900 51500 69000 123000 161000 202000 242000
2022-09-23 02:00 15.76 63000 304000 (1993) 26400 (2003) 92400 28300 37700 48900 51500 69000 123000 161000 202000 242000
2022-09-23 01:30 15.77 63400 304000 (1993) 26400 (2003) 92400 28300 37700 48900 51500 69000 123000 161000 202000 242000
2022-09-23 01:00 15.76 304000 (1993) 26400 (2003) 92400 28300 37700 48900 51500 69000 123000 161000 202000 242000
2022-09-23 00:30 15.76 61900 304000 (1993) 26400 (2003) 92400 28300 37700 48900 51500 69000 123000 161000 202000 242000
2022-09-23 00:00 15.77 62300 304000 (1993) 26400 (2003) 92400 28300 37700 48900 51500 69000 123000 161000 202000 242000
2022-09-22 23:30 15.78 62200 291000 (1993) 26200 (2012) 91200 30200 34600 46900 50900 63900 119000 141000 222000 241000
2022-09-22 23:00 15.78 61600 291000 (1993) 26200 (2012) 91200 30200 34600 46900 50900 63900 119000 141000 222000 241000
2022-09-22 22:30 15.78 61100 291000 (1993) 26200 (2012) 91200 30200 34600 46900 50900 63900 119000 141000 222000 241000
2022-09-22 22:00 15.78 61100 291000 (1993) 26200 (2012) 91200 30200 34600 46900 50900 63900 119000 141000 222000 241000
2022-09-22 21:30 15.78 61100 291000 (1993) 26200 (2012) 91200 30200 34600 46900 50900 63900 119000 141000 222000 241000
2022-09-22 21:00 15.79 62000 291000 (1993) 26200 (2012) 91200 30200 34600 46900 50900 63900 119000 141000 222000 241000
2022-09-22 20:30 15.79 62000 291000 (1993) 26200 (2012) 91200 30200 34600 46900 50900 63900 119000 141000 222000 241000
2022-09-22 20:00 15.80 62400 291000 (1993) 26200 (2012) 91200 30200 34600 46900 50900 63900 119000 141000 222000 241000
2022-09-22 19:30 15.80 63000 291000 (1993) 26200 (2012) 91200 30200 34600 46900 50900 63900 119000 141000 222000 241000
2022-09-22 19:00 15.82 291000 (1993) 26200 (2012) 91200 30200 34600 46900 50900 63900 119000 141000 222000 241000
2022-09-22 18:30 15.81 61700 291000 (1993) 26200 (2012) 91200 30200 34600 46900 50900 63900 119000 141000 222000 241000
2022-09-22 18:00 15.81 61700 291000 (1993) 26200 (2012) 91200 30200 34600 46900 50900 63900 119000 141000 222000 241000
2022-09-22 17:30 15.79 60400 291000 (1993) 26200 (2012) 91200 30200 34600 46900 50900 63900 119000 141000 222000 241000
2022-09-22 17:00 15.80 62400 291000 (1993) 26200 (2012) 91200 30200 34600 46900 50900 63900 119000 141000 222000 241000
2022-09-22 16:30 15.76 291000 (1993) 26200 (2012) 91200 30200 34600 46900 50900 63900 119000 141000 222000 241000
2022-09-22 16:00 15.81 64000 291000 (1993) 26200 (2012) 91200 30200 34600 46900 50900 63900 119000 141000 222000 241000
2022-09-22 15:30 15.78 291000 (1993) 26200 (2012) 91200 30200 34600 46900 50900 63900 119000 141000 222000 241000
2022-09-22 15:00 15.80 61900 291000 (1993) 26200 (2012) 91200 30200 34600 46900 50900 63900 119000 141000 222000 241000
2022-09-22 14:30 15.81 64000 291000 (1993) 26200 (2012) 91200 30200 34600 46900 50900 63900 119000 141000 222000 241000
2022-09-22 14:00 15.82 65000 291000 (1993) 26200 (2012) 91200 30200 34600 46900 50900 63900 119000 141000 222000 241000
2022-09-22 13:30 15.82 65000 291000 (1993) 26200 (2012) 91200 30200 34600 46900 50900 63900 119000 141000 222000 241000
2022-09-22 13:00 15.82 64400 291000 (1993) 26200 (2012) 91200 30200 34600 46900 50900 63900 119000 141000 222000 241000
2022-09-22 12:30 15.82 65500 291000 (1993) 26200 (2012) 91200 30200 34600 46900 50900 63900 119000 141000 222000 241000
2022-09-22 12:00 15.81 64000 291000 (1993) 26200 (2012) 91200 30200 34600 46900 50900 63900 119000 141000 222000 241000
2022-09-22 11:30 15.81 64000 291000 (1993) 26200 (2012) 91200 30200 34600 46900 50900 63900 119000 141000 222000 241000
2022-09-22 11:00 15.83 291000 (1993) 26200 (2012) 91200 30200 34600 46900 50900 63900 119000 141000 222000 241000
2022-09-22 10:30 15.80 291000 (1993) 26200 (2012) 91200 30200 34600 46900 50900 63900 119000 141000 222000 241000
2022-09-22 10:00 15.84 65800 291000 (1993) 26200 (2012) 91200 30200 34600 46900 50900 63900 119000 141000 222000 241000
2022-09-22 09:30 15.83 291000 (1993) 26200 (2012) 91200 30200 34600 46900 50900 63900 119000 141000 222000 241000
2022-09-22 09:00 15.84 291000 (1993) 26200 (2012) 91200 30200 34600 46900 50900 63900 119000 141000 222000 241000
2022-09-22 08:30 15.83 67700 291000 (1993) 26200 (2012) 91200 30200 34600 46900 50900 63900 119000 141000 222000 241000
2022-09-22 08:00 15.87 68300 291000 (1993) 26200 (2012) 91200 30200 34600 46900 50900 63900 119000 141000 222000 241000
2022-09-22 07:30 15.87 291000 (1993) 26200 (2012) 91200 30200 34600 46900 50900 63900 119000 141000 222000 241000
2022-09-22 07:00 15.88 67500 291000 (1993) 26200 (2012) 91200 30200 34600 46900 50900 63900 119000 141000 222000 241000
2022-09-22 06:30 15.88 66900 291000 (1993) 26200 (2012) 91200 30200 34600 46900 50900 63900 119000 141000 222000 241000
2022-09-22 06:00 15.88 291000 (1993) 26200 (2012) 91200 30200 34600 46900 50900 63900 119000 141000 222000 241000
2022-09-22 05:30 15.89 67400 291000 (1993) 26200 (2012) 91200 30200 34600 46900 50900 63900 119000 141000 222000 241000
2022-09-22 05:00 15.91 68800 291000 (1993) 26200 (2012) 91200 30200 34600 46900 50900 63900 119000 141000 222000 241000
2022-09-22 04:30 15.91 68800 291000 (1993) 26200 (2012) 91200 30200 34600 46900 50900 63900 119000 141000 222000 241000
2022-09-22 04:00 15.92 69200 291000 (1993) 26200 (2012) 91200 30200 34600 46900 50900 63900 119000 141000 222000 241000
2022-09-22 03:30 15.93 69000 291000 (1993) 26200 (2012) 91200 30200 34600 46900 50900 63900 119000 141000 222000 241000
2022-09-22 03:00 15.93 68400 291000 (1993) 26200 (2012) 91200 30200 34600 46900 50900 63900 119000 141000 222000 241000
2022-09-22 02:30 15.94 68900 291000 (1993) 26200 (2012) 91200 30200 34600 46900 50900 63900 119000 141000 222000 241000
2022-09-22 02:00 15.94 68200 291000 (1993) 26200 (2012) 91200 30200 34600 46900 50900 63900 119000 141000 222000 241000
2022-09-22 01:30 15.96 69700 291000 (1993) 26200 (2012) 91200 30200 34600 46900 50900 63900 119000 141000 222000 241000
2022-09-22 01:00 15.96 69700 291000 (1993) 26200 (2012) 91200 30200 34600 46900 50900 63900 119000 141000 222000 241000
2022-09-22 00:30 15.96 69100 291000 (1993) 26200 (2012) 91200 30200 34600 46900 50900 63900 119000 141000 222000 241000
2022-09-22 00:00 15.97 70100 291000 (1993) 26200 (2012) 91200 30200 34600 46900 50900 63900 119000 141000 222000 241000
2022-09-21 23:30 15.98 71200 292000 (1993) 21400 (2012) 93700 27600 34300 48700 51500 65900 120000 155000 229000 255000
2022-09-21 23:00 15.97 69500 292000 (1993) 21400 (2012) 93700 27600 34300 48700 51500 65900 120000 155000 229000 255000
2022-09-21 22:30 15.95 292000 (1993) 21400 (2012) 93700 27600 34300 48700 51500 65900 120000 155000 229000 255000
2022-09-21 22:00 15.98 71200 292000 (1993) 21400 (2012) 93700 27600 34300 48700 51500 65900 120000 155000 229000 255000
2022-09-21 21:30 15.99 292000 (1993) 21400 (2012) 93700 27600 34300 48700 51500 65900 120000 155000 229000 255000
2022-09-21 21:00 15.98 71800 292000 (1993) 21400 (2012) 93700 27600 34300 48700 51500 65900 120000 155000 229000 255000
2022-09-21 20:30 15.98 292000 (1993) 21400 (2012) 93700 27600 34300 48700 51500 65900 120000 155000 229000 255000
2022-09-21 20:00 15.98 292000 (1993) 21400 (2012) 93700 27600 34300 48700 51500 65900 120000 155000 229000 255000
2022-09-21 19:30 15.96 69100 292000 (1993) 21400 (2012) 93700 27600 34300 48700 51500 65900 120000 155000 229000 255000
2022-09-21 19:00 15.95 292000 (1993) 21400 (2012) 93700 27600 34300 48700 51500 65900 120000 155000 229000 255000
2022-09-21 18:30 15.94 68900 292000 (1993) 21400 (2012) 93700 27600 34300 48700 51500 65900 120000 155000 229000 255000
2022-09-21 18:00 15.93 68400 292000 (1993) 21400 (2012) 93700 27600 34300 48700 51500 65900 120000 155000 229000 255000
2022-09-21 17:30 15.93 70300 292000 (1993) 21400 (2012) 93700 27600 34300 48700 51500 65900 120000 155000 229000 255000
2022-09-21 17:00 15.94 292000 (1993) 21400 (2012) 93700 27600 34300 48700 51500 65900 120000 155000 229000 255000
2022-09-21 16:30 15.94 70100 292000 (1993) 21400 (2012) 93700 27600 34300 48700 51500 65900 120000 155000 229000 255000
2022-09-21 16:00 15.93 292000 (1993) 21400 (2012) 93700 27600 34300 48700 51500 65900 120000 155000 229000 255000
2022-09-21 15:30 15.94 69500 292000 (1993) 21400 (2012) 93700 27600 34300 48700 51500 65900 120000 155000 229000 255000
2022-09-21 15:00 15.93 292000 (1993) 21400 (2012) 93700 27600 34300 48700 51500 65900 120000 155000 229000 255000
2022-09-21 14:30 15.95 71100 292000 (1993) 21400 (2012) 93700 27600 34300 48700 51500 65900 120000 155000 229000 255000
2022-09-21 14:00 15.95 71700 292000 (1993) 21400 (2012) 93700 27600 34300 48700 51500 65900 120000 155000 229000 255000
2022-09-21 13:30 15.95 292000 (1993) 21400 (2012) 93700 27600 34300 48700 51500 65900 120000 155000 229000 255000
2022-09-21 13:00 15.96 292000 (1993) 21400 (2012) 93700 27600 34300 48700 51500 65900 120000 155000 229000 255000
2022-09-21 12:30 15.96 70900 292000 (1993) 21400 (2012) 93700 27600 34300 48700 51500 65900 120000 155000 229000 255000
2022-09-21 12:00 15.96 71600 292000 (1993) 21400 (2012) 93700 27600 34300 48700 51500 65900 120000 155000 229000 255000
2022-09-21 11:30 15.96 292000 (1993) 21400 (2012) 93700 27600 34300 48700 51500 65900 120000 155000 229000 255000
2022-09-21 11:00 15.96 72200 292000 (1993) 21400 (2012) 93700 27600 34300 48700 51500 65900 120000 155000 229000 255000
2022-09-21 10:30 15.97 72600 292000 (1993) 21400 (2012) 93700 27600 34300 48700 51500 65900 120000 155000 229000 255000
2022-09-21 10:00 15.99 74100 292000 (1993) 21400 (2012) 93700 27600 34300 48700 51500 65900 120000 155000 229000 255000
2022-09-21 09:30 16.00 74500 292000 (1993) 21400 (2012) 93700 27600 34300 48700 51500 65900 120000 155000 229000 255000
2022-09-21 09:00 15.99 74100 292000 (1993) 21400 (2012) 93700 27600 34300 48700 51500 65900 120000 155000 229000 255000
2022-09-21 08:30 16.00 74500 292000 (1993) 21400 (2012) 93700 27600 34300 48700 51500 65900 120000 155000 229000 255000
2022-09-21 08:00 16.00 75200 292000 (1993) 21400 (2012) 93700 27600 34300 48700 51500 65900 120000 155000 229000 255000
2022-09-21 07:30 16.01 75500 292000 (1993) 21400 (2012) 93700 27600 34300 48700 51500 65900 120000 155000 229000 255000
2022-09-21 07:00 16.02 76500 292000 (1993) 21400 (2012) 93700 27600 34300 48700 51500 65900 120000 155000 229000 255000
2022-09-21 06:30 16.01 74900 292000 (1993) 21400 (2012) 93700 27600 34300 48700 51500 65900 120000 155000 229000 255000
2022-09-21 06:00 16.01 74900 292000 (1993) 21400 (2012) 93700 27600 34300 48700 51500 65900 120000 155000 229000 255000
2022-09-21 05:30 16.02 76500 292000 (1993) 21400 (2012) 93700 27600 34300 48700 51500 65900 120000 155000 229000 255000
2022-09-21 05:00 16.03 292000 (1993) 21400 (2012) 93700 27600 34300 48700 51500 65900 120000 155000 229000 255000
2022-09-21 04:30 16.01 74300 292000 (1993) 21400 (2012) 93700 27600 34300 48700 51500 65900 120000 155000 229000 255000
2022-09-21 04:00 16.03 75600 292000 (1993) 21400 (2012) 93700 27600 34300 48700 51500 65900 120000 155000 229000 255000
2022-09-21 03:30 16.03 75600 292000 (1993) 21400 (2012) 93700 27600 34300 48700 51500 65900 120000 155000 229000 255000
2022-09-21 03:00 16.04 76000 292000 (1993) 21400 (2012) 93700 27600 34300 48700 51500 65900 120000 155000 229000 255000
2022-09-21 02:30 16.02 292000 (1993) 21400 (2012) 93700 27600 34300 48700 51500 65900 120000 155000 229000 255000
2022-09-21 02:00 16.05 75700 292000 (1993) 21400 (2012) 93700 27600 34300 48700 51500 65900 120000 155000 229000 255000
2022-09-21 01:30 16.05 76300 292000 (1993) 21400 (2012) 93700 27600 34300 48700 51500 65900 120000 155000 229000 255000
2022-09-21 01:00 16.05 76300 292000 (1993) 21400 (2012) 93700 27600 34300 48700 51500 65900 120000 155000 229000 255000
2022-09-21 00:30 16.05 75700 292000 (1993) 21400 (2012) 93700 27600 34300 48700 51500 65900 120000 155000 229000 255000
2022-09-21 00:00 16.06 76700 292000 (1993) 21400 (2012) 93700 27600 34300 48700 51500 65900 120000 155000 229000 255000
2022-09-20 23:30 16.05 75700 293000 (1993) 20500 (2012) 93800 29700 37400 44100 49600 65500 113000 152000 234000 282000
2022-09-20 23:00 16.06 76700 293000 (1993) 20500 (2012) 93800 29700 37400 44100 49600 65500 113000 152000 234000 282000
2022-09-20 22:30 16.07 77700 293000 (1993) 20500 (2012) 93800 29700 37400 44100 49600 65500 113000 152000 234000 282000
2022-09-20 22:00 16.05 293000 (1993) 20500 (2012) 93800 29700 37400 44100 49600 65500 113000 152000 234000 282000
2022-09-20 21:30 16.08 77400 293000 (1993) 20500 (2012) 93800 29700 37400 44100 49600 65500 113000 152000 234000 282000
2022-09-20 21:00 16.08 76700 293000 (1993) 20500 (2012) 93800 29700 37400 44100 49600 65500 113000 152000 234000 282000
2022-09-20 20:30 16.08 76700 293000 (1993) 20500 (2012) 93800 29700 37400 44100 49600 65500 113000 152000 234000 282000
2022-09-20 20:00 16.09 77100 293000 (1993) 20500 (2012) 93800 29700 37400 44100 49600 65500 113000 152000 234000 282000
2022-09-20 19:30 16.09 76400 293000 (1993) 20500 (2012) 93800 29700 37400 44100 49600 65500 113000 152000 234000 282000
2022-09-20 19:00 16.09 75100 293000 (1993) 20500 (2012) 93800 29700 37400 44100 49600 65500 113000 152000 234000 282000
2022-09-20 18:30 16.10 293000 (1993) 20500 (2012) 93800 29700 37400 44100 49600 65500 113000 152000 234000 282000
2022-09-20 18:00 16.10 293000 (1993) 20500 (2012) 93800 29700 37400 44100 49600 65500 113000 152000 234000 282000
2022-09-20 17:30 16.10 75400 293000 (1993) 20500 (2012) 93800 29700 37400 44100 49600 65500 113000 152000 234000 282000
2022-09-20 17:00 16.10 74800 293000 (1993) 20500 (2012) 93800 29700 37400 44100 49600 65500 113000 152000 234000 282000
2022-09-20 16:30 16.07 293000 (1993) 20500 (2012) 93800 29700 37400 44100 49600 65500 113000 152000 234000 282000
2022-09-20 16:00 16.09 293000 (1993) 20500 (2012) 93800 29700 37400 44100 49600 65500 113000 152000 234000 282000
2022-09-20 15:30 16.09 75100 293000 (1993) 20500 (2012) 93800 29700 37400 44100 49600 65500 113000 152000 234000 282000
2022-09-20 15:00 16.09 293000 (1993) 20500 (2012) 93800 29700 37400 44100 49600 65500 113000 152000 234000 282000
2022-09-20 14:30 16.09 293000 (1993) 20500 (2012) 93800 29700 37400 44100 49600 65500 113000 152000 234000 282000
2022-09-20 14:00 16.08 75400 293000 (1993) 20500 (2012) 93800 29700 37400 44100 49600 65500 113000 152000 234000 282000
2022-09-20 13:30 16.05 293000 (1993) 20500 (2012) 93800 29700 37400 44100 49600 65500 113000 152000 234000 282000
2022-09-20 13:00 16.07 76400 293000 (1993) 20500 (2012) 93800 29700 37400 44100 49600 65500 113000 152000 234000 282000
2022-09-20 12:30 16.07 293000 (1993) 20500 (2012) 93800 29700 37400 44100 49600 65500 113000 152000 234000 282000
2022-09-20 12:00 16.05 74400 293000 (1993) 20500 (2012) 93800 29700 37400 44100 49600 65500 113000 152000 234000 282000
2022-09-20 11:30 16.06 75400 293000 (1993) 20500 (2012) 93800 29700 37400 44100 49600 65500 113000 152000 234000 282000
2022-09-20 11:00 16.05 74400 293000 (1993) 20500 (2012) 93800 29700 37400 44100 49600 65500 113000 152000 234000 282000
2022-09-20 10:30 16.05 75000 293000 (1993) 20500 (2012) 93800 29700 37400 44100 49600 65500 113000 152000 234000 282000
2022-09-20 10:00 16.05 75700 293000 (1993) 20500 (2012) 93800 29700 37400 44100 49600 65500 113000 152000 234000 282000
2022-09-20 09:30 16.04 74700 293000 (1993) 20500 (2012) 93800 29700 37400 44100 49600 65500 113000 152000 234000 282000
2022-09-20 09:00 16.06 76000 293000 (1993) 20500 (2012) 93800 29700 37400 44100 49600 65500 113000 152000 234000 282000
2022-09-20 08:30 16.06 76000 293000 (1993) 20500 (2012) 93800 29700 37400 44100 49600 65500 113000 152000 234000 282000
2022-09-20 08:00 16.04 293000 (1993) 20500 (2012) 93800 29700 37400 44100 49600 65500 113000 152000 234000 282000
2022-09-20 07:30 16.05 75000 293000 (1993) 20500 (2012) 93800 29700 37400 44100 49600 65500 113000 152000 234000 282000
2022-09-20 07:00 16.04 293000 (1993) 20500 (2012) 93800 29700 37400 44100 49600 65500 113000 152000 234000 282000
2022-09-20 06:30 16.05 76300 293000 (1993) 20500 (2012) 93800 29700 37400 44100 49600 65500 113000 152000 234000 282000
2022-09-20 06:00 16.05 77600 293000 (1993) 20500 (2012) 93800 29700 37400 44100 49600 65500 113000 152000 234000 282000
2022-09-20 05:30 16.06 76700 293000 (1993) 20500 (2012) 93800 29700 37400 44100 49600 65500 113000 152000 234000 282000
2022-09-20 05:00 16.05 293000 (1993) 20500 (2012) 93800 29700 37400 44100 49600 65500 113000 152000 234000 282000
2022-09-20 04:30 16.06 77300 293000 (1993) 20500 (2012) 93800 29700 37400 44100 49600 65500 113000 152000 234000 282000
2022-09-20 04:00 16.06 77300 293000 (1993) 20500 (2012) 93800 29700 37400 44100 49600 65500 113000 152000 234000 282000
2022-09-20 03:30 16.05 77000 293000 (1993) 20500 (2012) 93800 29700 37400 44100 49600 65500 113000 152000 234000 282000
2022-09-20 03:00 16.06 78000 293000 (1993) 20500 (2012) 93800 29700 37400 44100 49600 65500 113000 152000 234000 282000
2022-09-20 02:30 16.06 78600 293000 (1993) 20500 (2012) 93800 29700 37400 44100 49600 65500 113000 152000 234000 282000
2022-09-20 02:00 16.06 78600 293000 (1993) 20500 (2012) 93800 29700 37400 44100 49600 65500 113000 152000 234000 282000
2022-09-20 01:30 16.04 76600 293000 (1993) 20500 (2012) 93800 29700 37400 44100 49600 65500 113000 152000 234000 282000
2022-09-20 01:00 16.05 78300 293000 (1993) 20500 (2012) 93800 29700 37400 44100 49600 65500 113000 152000 234000 282000
2022-09-20 00:30 16.04 77200 293000 (1993) 20500 (2012) 93800 29700 37400 44100 49600 65500 113000 152000 234000 282000
2022-09-20 00:00 16.07 78300 293000 (1993) 20500 (2012) 93800 29700 37400 44100 49600 65500 113000 152000 234000 282000
2022-09-19 23:30 16.06 76700 309000 (2008) 23500 (2012) 93700 25500 34700 45800 47800 65300 98900 121000 237000 301000
2022-09-19 23:00 16.07 309000 (2008) 23500 (2012) 93700 25500 34700 45800 47800 65300 98900 121000 237000 301000
2022-09-19 22:30 16.07 309000 (2008) 23500 (2012) 93700 25500 34700 45800 47800 65300 98900 121000 237000 301000
2022-09-19 22:00 16.07 77000 309000 (2008) 23500 (2012) 93700 25500 34700 45800 47800 65300 98900 121000 237000 301000
2022-09-19 21:30 16.06 75400 309000 (2008) 23500 (2012) 93700 25500 34700 45800 47800 65300 98900 121000 237000 301000
2022-09-19 21:00 16.05 74400 309000 (2008) 23500 (2012) 93700 25500 34700 45800 47800 65300 98900 121000 237000 301000
2022-09-19 20:30 16.05 74400 309000 (2008) 23500 (2012) 93700 25500 34700 45800 47800 65300 98900 121000 237000 301000
2022-09-19 20:00 16.06 74700 309000 (2008) 23500 (2012) 93700 25500 34700 45800 47800 65300 98900 121000 237000 301000
2022-09-19 19:30 16.06 309000 (2008) 23500 (2012) 93700 25500 34700 45800 47800 65300 98900 121000 237000 301000
2022-09-19 19:00 16.06 74700 309000 (2008) 23500 (2012) 93700 25500 34700 45800 47800 65300 98900 121000 237000 301000
2022-09-19 18:30 16.04 72700 309000 (2008) 23500 (2012) 93700 25500 34700 45800 47800 65300 98900 121000 237000 301000
2022-09-19 18:00 16.05 73700 309000 (2008) 23500 (2012) 93700 25500 34700 45800 47800 65300 98900 121000 237000 301000
2022-09-19 17:30 16.06 309000 (2008) 23500 (2012) 93700 25500 34700 45800 47800 65300 98900 121000 237000 301000
2022-09-19 17:00 16.06 74700 309000 (2008) 23500 (2012) 93700 25500 34700 45800 47800 65300 98900 121000 237000 301000
2022-09-19 16:30 16.05 73100 309000 (2008) 23500 (2012) 93700 25500 34700 45800 47800 65300 98900 121000 237000 301000
2022-09-19 16:00 16.05 73700 309000 (2008) 23500 (2012) 93700 25500 34700 45800 47800 65300 98900 121000 237000 301000
2022-09-19 15:30 16.04 73400 309000 (2008) 23500 (2012) 93700 25500 34700 45800 47800 65300 98900 121000 237000 301000
2022-09-19 15:00 16.05 75000 309000 (2008) 23500 (2012) 93700 25500 34700 45800 47800 65300 98900 121000 237000 301000
2022-09-19 14:30 16.03 73700 309000 (2008) 23500 (2012) 93700 25500 34700 45800 47800 65300 98900 121000 237000 301000
2022-09-19 14:00 16.03 73700 309000 (2008) 23500 (2012) 93700 25500 34700 45800 47800 65300 98900 121000 237000 301000
2022-09-19 13:30 16.03 73700 309000 (2008) 23500 (2012) 93700 25500 34700 45800 47800 65300 98900 121000 237000 301000
2022-09-19 13:00 16.05 309000 (2008) 23500 (2012) 93700 25500 34700 45800 47800 65300 98900 121000 237000 301000
2022-09-19 12:30 16.04 73400 309000 (2008) 23500 (2012) 93700 25500 34700 45800 47800 65300 98900 121000 237000 301000
2022-09-19 12:00 16.05 73700 309000 (2008) 23500 (2012) 93700 25500 34700 45800 47800 65300 98900 121000 237000 301000
2022-09-19 11:30 16.05 74400 309000 (2008) 23500 (2012) 93700 25500 34700 45800 47800 65300 98900 121000 237000 301000
2022-09-19 11:00 16.05 74400 309000 (2008) 23500 (2012) 93700 25500 34700 45800 47800 65300 98900 121000 237000 301000
2022-09-19 10:30 16.05 309000 (2008) 23500 (2012) 93700 25500 34700 45800 47800 65300 98900 121000 237000 301000
2022-09-19 10:00 16.05 309000 (2008) 23500 (2012) 93700 25500 34700 45800 47800 65300 98900 121000 237000 301000
2022-09-19 09:30 16.06 76000 309000 (2008) 23500 (2012) 93700 25500 34700 45800 47800 65300 98900 121000 237000 301000
2022-09-19 09:00 16.06 309000 (2008) 23500 (2012) 93700 25500 34700 45800 47800 65300 98900 121000 237000 301000
2022-09-19 08:30 16.09 79000 309000 (2008) 23500 (2012) 93700 25500 34700 45800 47800 65300 98900 121000 237000 301000
2022-09-19 08:00 16.11 309000 (2008) 23500 (2012) 93700 25500 34700 45800 47800 65300 98900 121000 237000 301000
2022-09-19 07:30 16.10 309000 (2008) 23500 (2012) 93700 25500 34700 45800 47800 65300 98900 121000 237000 301000
2022-09-19 07:00 16.14 309000 (2008) 23500 (2012) 93700 25500 34700 45800 47800 65300 98900 121000 237000 301000
2022-09-19 06:30 16.07 73800 309000 (2008) 23500 (2012) 93700 25500 34700 45800 47800 65300 98900 121000 237000 301000
2022-09-19 06:00 16.05 309000 (2008) 23500 (2012) 93700 25500 34700 45800 47800 65300 98900 121000 237000 301000
2022-09-19 05:30 16.07 72500 309000 (2008) 23500 (2012) 93700 25500 34700 45800 47800 65300 98900 121000 237000 301000
2022-09-19 05:00 16.08 74700 309000 (2008) 23500 (2012) 93700 25500 34700 45800 47800 65300 98900 121000 237000 301000
2022-09-19 04:30 16.08 74100 309000 (2008) 23500 (2012) 93700 25500 34700 45800 47800 65300 98900 121000 237000 301000
2022-09-19 04:00 16.06 73400 309000 (2008) 23500 (2012) 93700 25500 34700 45800 47800 65300 98900 121000 237000 301000
2022-09-19 03:30 16.05 309000 (2008) 23500 (2012) 93700 25500 34700 45800 47800 65300 98900 121000 237000 301000
2022-09-19 03:00 16.05 72400 309000 (2008) 23500 (2012) 93700 25500 34700 45800 47800 65300 98900 121000 237000 301000
2022-09-19 02:30 16.07 309000 (2008) 23500 (2012) 93700 25500 34700 45800 47800 65300 98900 121000 237000 301000
2022-09-19 02:00 16.08 309000 (2008) 23500 (2012) 93700 25500 34700 45800 47800 65300 98900 121000 237000 301000
2022-09-19 01:30 16.05 72400 309000 (2008) 23500 (2012) 93700 25500 34700 45800 47800 65300 98900 121000 237000 301000
2022-09-19 01:00 16.05 72400 309000 (2008) 23500 (2012) 93700 25500 34700 45800 47800 65300 98900 121000 237000 301000
2022-09-19 00:30 16.03 309000 (2008) 23500 (2012) 93700 25500 34700 45800 47800 65300 98900 121000 237000 301000
2022-09-19 00:00 16.04 70800 309000 (2008) 23500 (2012) 93700 25500 34700 45800 47800 65300 98900 121000 237000 301000
2022-09-18 23:30 16.03 312000 (2008) 23400 (2003) 95200 28600 33300 51900 53400 65800 98300 109000 241000 308000
2022-09-18 23:00 16.03 312000 (2008) 23400 (2003) 95200 28600 33300 51900 53400 65800 98300 109000 241000 308000
2022-09-18 22:30 16.03 71700 312000 (2008) 23400 (2003) 95200 28600 33300 51900 53400 65800 98300 109000 241000 308000
2022-09-18 22:00 16.03 312000 (2008) 23400 (2003) 95200 28600 33300 51900 53400 65800 98300 109000 241000 308000
2022-09-18 21:30 16.02 70800 312000 (2008) 23400 (2003) 95200 28600 33300 51900 53400 65800 98300 109000 241000 308000
2022-09-18 21:00 16.01 69800 312000 (2008) 23400 (2003) 95200 28600 33300 51900 53400 65800 98300 109000 241000 308000
2022-09-18 20:30 16.00 68800 312000 (2008) 23400 (2003) 95200 28600 33300 51900 53400 65800 98300 109000 241000 308000
2022-09-18 20:00 16.00 68800 312000 (2008) 23400 (2003) 95200 28600 33300 51900 53400 65800 98300 109000 241000 308000
2022-09-18 19:30 15.98 67400 312000 (2008) 23400 (2003) 95200 28600 33300 51900 53400 65800 98300 109000 241000 308000
2022-09-18 19:00 16.00 312000 (2008) 23400 (2003) 95200 28600 33300 51900 53400 65800 98300 109000 241000 308000
2022-09-18 18:30 15.97 66400 312000 (2008) 23400 (2003) 95200 28600 33300 51900 53400 65800 98300 109000 241000 308000
2022-09-18 18:00 16.00 312000 (2008) 23400 (2003) 95200 28600 33300 51900 53400 65800 98300 109000 241000 308000
2022-09-18 17:30 15.99 312000 (2008) 23400 (2003) 95200 28600 33300 51900 53400 65800 98300 109000 241000 308000
2022-09-18 17:00 15.98 312000 (2008) 23400 (2003) 95200 28600 33300 51900 53400 65800 98300 109000 241000 308000
2022-09-18 16:30 15.93 312000 (2008) 23400 (2003) 95200 28600 33300 51900 53400 65800 98300 109000 241000 308000
2022-09-18 16:00 15.94 61500 312000 (2008) 23400 (2003) 95200 28600 33300 51900 53400 65800 98300 109000 241000 308000
2022-09-18 15:30 15.95 62500 312000 (2008) 23400 (2003) 95200 28600 33300 51900 53400 65800 98300 109000 241000 308000
2022-09-18 15:00 15.95 312000 (2008) 23400 (2003) 95200 28600 33300 51900 53400 65800 98300 109000 241000 308000
2022-09-18 14:30 15.94 312000 (2008) 23400 (2003) 95200 28600 33300 51900 53400 65800 98300 109000 241000 308000
2022-09-18 14:00 15.88 312000 (2008) 23400 (2003) 95200 28600 33300 51900 53400 65800 98300 109000 241000 308000
2022-09-18 13:30 15.92 61400 312000 (2008) 23400 (2003) 95200 28600 33300 51900 53400 65800 98300 109000 241000 308000
2022-09-18 13:00 15.90 312000 (2008) 23400 (2003) 95200 28600 33300 51900 53400 65800 98300 109000 241000 308000
2022-09-18 12:30 15.91 63400 312000 (2008) 23400 (2003) 95200 28600 33300 51900 53400 65800 98300 109000 241000 308000
2022-09-18 12:00 15.88 312000 (2008) 23400 (2003) 95200 28600 33300 51900 53400 65800 98300 109000 241000 308000
2022-09-18 11:30 15.90 312000 (2008) 23400 (2003) 95200 28600 33300 51900 53400 65800 98300 109000 241000 308000
2022-09-18 11:00 15.90 312000 (2008) 23400 (2003) 95200 28600 33300 51900 53400 65800 98300 109000 241000 308000
2022-09-18 10:30 15.90 312000 (2008) 23400 (2003) 95200 28600 33300 51900 53400 65800 98300 109000 241000 308000
2022-09-18 10:00 15.93 312000 (2008) 23400 (2003) 95200 28600 33300 51900 53400 65800 98300 109000 241000 308000
2022-09-18 09:30 15.94 312000 (2008) 23400 (2003) 95200 28600 33300 51900 53400 65800 98300 109000 241000 308000
2022-09-18 09:00 15.94 312000 (2008) 23400 (2003) 95200 28600 33300 51900 53400 65800 98300 109000 241000 308000
2022-09-18 08:30 15.92 66200 312000 (2008) 23400 (2003) 95200 28600 33300 51900 53400 65800 98300 109000 241000 308000
2022-09-18 08:00 15.90 64800 312000 (2008) 23400 (2003) 95200 28600 33300 51900 53400 65800 98300 109000 241000 308000
2022-09-18 07:30 15.89 312000 (2008) 23400 (2003) 95200 28600 33300 51900 53400 65800 98300 109000 241000 308000
2022-09-18 07:00 15.86 62600 312000 (2008) 23400 (2003) 95200 28600 33300 51900 53400 65800 98300 109000 241000 308000
2022-09-18 06:30 15.86 62600 312000 (2008) 23400 (2003) 95200 28600 33300 51900 53400 65800 98300 109000 241000 308000
2022-09-18 06:00 15.86 63800 312000 (2008) 23400 (2003) 95200 28600 33300 51900 53400 65800 98300 109000 241000 308000
2022-09-18 05:30 15.86 312000 (2008) 23400 (2003) 95200 28600 33300 51900 53400 65800 98300 109000 241000 308000
2022-09-18 05:00 15.87 64800 312000 (2008) 23400 (2003) 95200 28600 33300 51900 53400 65800 98300 109000 241000 308000
2022-09-18 04:30 15.85 312000 (2008) 23400 (2003) 95200 28600 33300 51900 53400 65800 98300 109000 241000 308000
2022-09-18 04:00 15.87 312000 (2008) 23400 (2003) 95200 28600 33300 51900 53400 65800 98300 109000 241000 308000
2022-09-18 03:30 15.87 64800 312000 (2008) 23400 (2003) 95200 28600 33300 51900 53400 65800 98300 109000 241000 308000
2022-09-18 03:00 15.87 64200 312000 (2008) 23400 (2003) 95200 28600 33300 51900 53400 65800 98300 109000 241000 308000
2022-09-18 02:30 15.87 64200 312000 (2008) 23400 (2003) 95200 28600 33300 51900 53400 65800 98300 109000 241000 308000
2022-09-18 02:00 15.85 62200 312000 (2008) 23400 (2003) 95200 28600 33300 51900 53400 65800 98300 109000 241000 308000
2022-09-18 01:30 15.85 63400 312000 (2008) 23400 (2003) 95200 28600 33300 51900 53400 65800 98300 109000 241000 308000
2022-09-18 01:00 15.84 63500 312000 (2008) 23400 (2003) 95200 28600 33300 51900 53400 65800 98300 109000 241000 308000
2022-09-18 00:30 15.85 63400 312000 (2008) 23400 (2003) 95200 28600 33300 51900 53400 65800 98300 109000 241000 308000
2022-09-18 00:00 15.82 61600 312000 (2008) 23400 (2003) 95200 28600 33300 51900 53400 65800 98300 109000 241000 308000

A total of 381 rows are displayed for years 1987 through 2020.